• Join FlightAware (Why Join?)
  • Login
  • US Flag 
09:32AM EDT


 

Airport Tracker/Info


-or-


 

Live Flight TrackerFlight Track Log ✈ SWA22 ✈ 14-Apr-2013 ✈ KHRL - KHOU

Flight Track Log - Related Links

Times and Time Zones

All times are in EDT time to prevent confusion due to time zone crossing. See the SWA22 flight status page for this flight to view local times or setup timezone preferences in your user account.

Time Position Orientation Groundspeed Altitude Reporting Facility
EDT Latitude Longitude Course Direction KTS MPH feet Rate Location/Type
11:10AM 26.3114 -97.6375 North 230 265 3,900  Level Houston Center
11:11AM 26.3528 -97.5756 53° Northeast 275 316 6,300 3,360 Climbing Houston Center
11:12AM 26.4017 -97.4956 56° Northeast 288 331 10,900 3,300 Climbing Houston Center
11:13AM 26.4908 -97.4406 29° Northeast 346 398 13,400 2,940 Climbing Houston Center
11:14AM 26.5581 -97.3478 51° Northeast 388 447 17,000 3,720 Climbing Houston Center
11:15AM 26.8729 -97.5667 North  Level FlightAware Approximate
11:15AM 26.6186 -97.2428 57° Northeast 401 461 21,100  Level Houston Center
11:16AM 26.7197 -97.1814 28° Northeast 391 450 23,400 2,460 Climbing Houston Center
11:17AM 26.8233 -97.1369 21° North 399 459 26,200 1,740 Climbing Houston Center
11:18AM 26.9344 -97.0886 21° North 414 476 27,000 360 Climbing Houston Center
11:19AM 27.0414 -97.0422 21° North 414 476 27,000  Level Houston Center
11:20AM 27.1492 -96.9947 21° North 416 479 27,000  Level Houston Center
11:21AM 27.2575 -96.9475 21° North 417 480 27,000  Level Houston Center
11:22AM 27.3656 -96.9006 21° North 417 480 27,000  Level Houston Center
11:23AM 27.4725 -96.8539 21° North 418 481 27,000  Level Houston Center
11:24AM 27.5819 -96.8058 21° North 420 483 27,000  Level Houston Center
11:25AM 27.7139 -96.7486 21° North 422 486 27,000  Level Houston Center
11:26AM 27.8228 -96.6992 22° Northeast 422 486 27,000  Level Houston Center
11:27AM 27.9331 -96.6506 21° North 424 488 27,000  Level Houston Center
11:28AM 28.0436 -96.6028 21° North 425 489 27,000  Level Houston Center
11:29AM 28.1497 -96.5547 22° Northeast 416 479 27,000 -540 Level Houston Center
11:30AM 28.2486 -96.5128 20° North 388 447 25,900 -1,140 Descending Houston Center
11:31AM 28.3658 -96.4594 22° Northeast 380 437 24,700 -960 Descending Houston Center
11:32AM 28.4644 -96.4167 21° North 379 436 24,000 -360 Descending Houston Center
11:33AM 28.5608 -96.3722 22° Northeast 375 432 24,000  Level Houston Center
11:34AM 28.6578 -96.3278 22° Northeast 376 433 24,000 -120 Level Houston Center
11:35AM 28.7553 -96.2847 21° North 377 434 23,800 -1,080 Descending Houston Center
11:36AM 28.8519 -96.2411 22° Northeast 375 432 21,800 -2,220 Descending Houston Center
11:37AM 28.9628 -96.1908 22° Northeast 360 414 19,300 -2,340 Descending Houston Center
11:38AM 29.0208 -96.1656 21° North 351 404 17,900 -2,040 Descending Houston Center
11:38AM 29.0514 -96.1508 23° Northeast 348 400 17,200 -1,980 Descending Houston Center
11:39AM 29.1425 -96.1094 22° Northeast 351 404 15,100 -2,100 Descending Houston Center
11:40AM 29.2344 -96.0678 22° Northeast 355 409 13,000 -1,500 Descending Houston Center
11:42AM 29.3322 -96.0061 29° Northeast 333 383 12,000 -840 Descending Houston Center
11:43AM 29.3906 -95.9442 43° Northeast 328 377 11,300 -900 Descending Houston Center
11:44AM 29.4558 -95.8756 42° Northeast 318 366 10,300 -1,320 Descending Houston Center
11:45AM 29.4772 -95.7825 75° East 303 349 8,600 -1,800 Descending Houston Center
11:46AM 29.5014 -95.6631 77° East 309 356 6,600 -1,860 Descending Houston Center
11:47AM 29.5158 -95.5747 79° East 298 343 4,800 -1,380 Descending Houston Center
11:48AM 29.5319 -95.4897 78° East 281 323 3,800 -1,080 Descending Houston Center
11:49AM 29.5492 -95.4003 77° East 238 274 2,500 -1,020 Descending Houston Center
11:50AM 29.5750 -95.3558 56° Northeast 229 264 1,800 -900 Descending Houston Center
11:51AM 29.6128 -95.3158 43° Northeast 144 166 800 -780 Descending Houston Center
11:52AM 29.6375 -95.2872 45° Northeast 161 185 200 -600 Descending Houston Center
11:54AM 29.6454 -95.2789 60° Northeast  Level Estimated